Latest Weather Observations for Esperance Harbour

IDW60801

Issued at 3:02 pm WST Friday 28 August 2015 (issued every 30 minutes, with the page automatically refreshed every 10 minutes)

About weather observations | Map of weather stations | Latest weather observations for WA | Other Formats
Station Details ID: 109504 Name: ESPERANCE NTC AWS Lat: -33.87 Lon: 121.90 Height: 0.0 m
Data from the previous 72 hours. | See also: Recent months for locations in Western Australia
Date/Time
WST
Temp
°C
App
Temp
°C
Dew
Point
Rel
Hum
%
Delta-T
°C
Wind Press
QNH
hPa
Press
MSL
hPa
Rain
since 9 am
mm
Dir
 
Spd
km/h
Gust
km/h
Spd
kts
Gust
kts
28/03:00pm 20.9 - - - - - - - - - 1015.2 1015.2 -
28/02:30pm 20.4 - - - - - - - - - 1015.5 1015.5 -
28/02:00pm 20.2 - - - - - - - - - 1015.8 1015.8 -
28/01:30pm 19.4 - - - - - - - - - 1016.1 1016.1 -
28/01:00pm 19.7 - - - - - - - - - 1016.5 1016.5 -
28/12:30pm 18.9 - - - - - - - - - 1016.9 1016.9 -
28/12:00pm 18.3 - - - - - - - - - 1017.7 1017.7 -
28/11:30am 17.3 - - - - - - - - - 1018.3 1018.3 -
28/11:00am 16.7 - - - - - - - - - 1018.6 1018.6 -
28/10:30am 16.1 - - - - - - - - - 1019.1 1019.1 -
28/10:00am 15.8 - - - - - - - - - 1019.4 1019.4 -
28/09:30am 14.4 - - - - - - - - - 1019.9 1019.9 -
28/09:00am 13.9 - - - - - - - - - 1019.8 1019.8 -
28/08:30am 12.7 - - - - - - - - - 1020.3 1020.3 -
28/08:00am 12.5 - - - - - - - - - 1020.5 1020.5 -
28/07:30am 12.6 - - - - - - - - - 1020.4 1020.4 -
28/07:00am 12.3 - - - - - - - - - 1020.4 1020.4 -
28/06:30am 12.2 - - - - - - - - - 1020.1 1020.1 -
28/06:00am 12.2 - - - - - - - - - 1019.9 1019.9 -
28/05:30am 11.9 - - - - - - - - - 1019.8 1019.8 -
28/05:00am 11.8 - - - - - - - - - 1019.7 1019.7 -
28/04:30am 11.7 - - - - - - - - - 1019.7 1019.7 -
28/04:00am 11.9 - - - - - - - - - 1019.9 1019.9 -
28/03:30am 11.5 - - - - - - - - - 1020.0 1020.0 -
28/03:00am 11.6 - - - - - - - - - 1020.2 1020.2 -
28/02:30am 12.0 - - - - - - - - - 1020.6 1020.6 -
28/02:00am 12.1 - - - - - - - - - 1021.0 1020.9 -
28/01:30am 12.1 - - - - - - - - - 1021.2 1021.1 -
28/01:00am 12.3 - - - - - - - - - 1021.5 1021.4 -
28/12:30am 12.8 - - - - - - - - - 1021.7 1021.6 -
28/12:00am 12.9 - - - - - - - - - 1021.8 1021.7 -
 
Date/Time
WST
Temp
°C
App
Temp
°C
Dew
Point
Rel
Hum
%
Delta-T
°C
Wind Press
QNH
hPa
Press
MSL
hPa
Rain
since 9 am
mm
Dir
 
Spd
km/h
Gust
km/h
Spd
kts
Gust
kts
27/11:30pm 13.0 - - - - - - - - - 1022.0 1021.9 -
27/11:00pm 13.1 - - - - - - - - - 1022.1 1022.0 -
27/10:30pm 13.2 - - - - - - - - - 1022.6 1022.5 -
27/10:00pm 13.5 - - - - - - - - - 1022.5 1022.4 -
27/09:30pm 13.5 - - - - - - - - - 1022.8 1022.7 -
27/09:00pm 13.5 - - - - - - - - - 1022.7 1022.6 -
27/08:30pm 13.8 - - - - - - - - - 1022.6 1022.5 -
27/08:00pm 14.6 - - - - - - - - - 1022.5 1022.4 -
27/07:30pm 14.7 - - - - - - - - - 1022.4 1022.3 -
27/07:00pm 15.7 - - - - - - - - - 1022.3 1022.2 -
27/06:30pm 16.2 - - - - - - - - - 1022.1 1022.0 -
27/06:00pm 16.7 - - - - - - - - - 1022.1 1022.0 -
27/05:30pm 17.2 - - - - - - - - - 1021.8 1021.7 -
27/05:00pm 17.7 - - - - - - - - - 1021.6 1021.5 -
27/04:30pm 18.1 - - - - - - - - - 1021.5 1021.4 -
27/04:00pm 18.6 - - - - - - - - - 1021.6 1021.5 -
27/03:30pm 18.7 - - - - - - - - - 1021.6 1021.5 -
27/03:00pm 18.6 - - - - - - - - - 1021.6 1021.5 -
27/02:30pm 18.6 - - - - - - - - - 1021.5 1021.4 -
27/02:00pm 18.0 - - - - - - - - - 1021.6 1021.5 -
27/01:30pm 18.0 - - - - - - - - - 1021.9 1021.8 -
27/01:00pm 18.0 - - - - - - - - - 1022.2 1022.1 -
27/12:30pm 18.0 - - - - - - - - - 1022.5 1022.4 -
27/12:00pm 17.0 - - - - - - - - - 1023.1 1023.0 -
27/11:30am 16.6 - - - - - - - - - 1023.7 1023.6 -
27/11:00am 16.3 - - - - - - - - - 1023.9 1023.8 -
27/10:30am 15.5 - - - - - - - - - 1024.1 1024.0 -
27/10:00am 15.4 - - - - - - - - - 1024.2 1024.1 -
27/09:30am 14.9 - - - - - - - - - 1024.2 1024.1 -
27/09:00am 13.7 - - - - - - - - - 1024.3 1024.2 -
27/08:30am 12.6 - - - - - - - - - 1024.4 1024.3 -
27/08:00am 11.9 - - - - - - - - - 1024.4 1024.3 -
27/07:30am 11.1 - - - - - - - - - 1024.2 1024.1 -
27/07:00am 10.3 - - - - - - - - - 1023.9 1023.8 -
27/06:30am 10.7 - - - - - - - - - 1023.5 1023.4 -
27/06:00am 10.7 - - - - - - - - - 1023.2 1023.1 -
27/05:30am 10.4 - - - - - - - - - 1023.0 1022.9 -
27/05:00am 10.3 - - - - - - - - - 1022.9 1022.8 -
27/04:30am 10.5 - - - - - - - - - 1022.7 1022.6 -
27/04:00am 10.7 - - - - - - - - - 1022.5 1022.4 -
27/03:30am 10.7 - - - - - - - - - 1022.5 1022.4 -
27/03:00am 11.1 - - - - - - - - - 1022.4 1022.3 -
27/02:30am 11.1 - - - - - - - - - 1022.6 1022.5 -
27/02:00am 11.4 - - - - - - - - - 1022.7 1022.6 -
27/01:30am 11.5 - - - - - - - - - 1022.9 1022.8 -
27/01:00am 11.5 - - - - - - - - - 1023.0 1022.9 -
27/12:30am 12.0 - - - - - - - - - 1023.0 1022.9 -
27/12:00am 12.1 - - - - - - - - - 1023.1 1023.0 -
 
Date/Time
WST
Temp
°C
App
Temp
°C
Dew
Point
Rel
Hum
%
Delta-T
°C
Wind Press
QNH
hPa
Press
MSL
hPa
Rain
since 9 am
mm
Dir
 
Spd
km/h
Gust
km/h
Spd
kts
Gust
kts
26/11:30pm 12.2 - - - - - - - - - 1023.2 1023.1 -
26/11:00pm 12.3 - - - - - - - - - 1023.2 1023.1 -
26/10:30pm 13.0 - - - - - - - - - 1023.3 1023.2 -
26/10:00pm 13.4 - - - - - - - - - 1023.4 1023.3 -
26/09:30pm 13.6 - - - - - - - - - 1023.6 1023.5 -
26/09:00pm 13.9 - - - - - - - - - 1023.7 1023.6 -
26/08:30pm 14.2 - - - - - - - - - 1023.6 1023.5 -
26/08:00pm 14.4 - - - - - - - - - 1023.8 1023.7 -
26/07:30pm 14.8 - - - - - - - - - 1023.5 1023.4 -
26/07:00pm 14.9 - - - - - - - - - 1023.4 1023.3 -
26/06:30pm 15.5 - - - - - - - - - 1023.2 1023.1 -
26/06:00pm 15.9 - - - - - - - - - 1023.2 1023.1 -
26/05:30pm 16.4 - - - - - - - - - 1023.1 1023.0 -
26/05:00pm 16.8 - - - - - - - - - 1022.9 1022.8 -
26/04:30pm 17.2 - - - - - - - - - 1022.7 1022.6 -
26/04:00pm 17.1 - - - - - - - - - 1022.5 1022.4 -
26/03:30pm 17.4 - - - - - - - - - 1022.4 1022.3 -
26/03:00pm 17.2 - - - - - - - - - 1022.3 1022.2 -
26/02:30pm 17.1 - - - - - - - - - 1022.2 1022.1 -
26/02:00pm 17.1 - - - - - - - - - 1022.5 1022.4 -
26/01:30pm 16.8 - - - - - - - - - 1022.6 1022.5 -
26/01:00pm 16.6 - - - - - - - - - 1023.1 1023.0 -
26/12:30pm 16.3 - - - - - - - - - 1023.4 1023.3 -
26/12:00pm 15.9 - - - - - - - - - 1023.9 1023.8 -
26/11:30am 15.6 - - - - - - - - - 1024.3 1024.2 -
26/11:00am 15.3 - - - - - - - - - 1024.7 1024.6 -
26/10:30am 14.6 - - - - - - - - - 1025.0 1024.9 -
26/10:00am 14.0 - - - - - - - - - 1025.4 1025.3 -
26/09:30am 13.2 - - - - - - - - - 1025.7 1025.6 -
26/09:00am 12.3 - - - - - - - - - 1026.0 1025.9 -
26/08:30am 10.9 - - - - - - - - - 1026.1 1026.0 -
26/08:00am 9.9 - - - - - - - - - 1026.2 1026.1 -
26/07:30am 9.0 - - - - - - - - - 1025.9 1025.8 -
26/07:00am 8.6 - - - - - - - - - 1025.8 1025.7 -
26/06:30am 8.3 - - - - - - - - - 1025.5 1025.4 -
26/06:00am 8.9 - - - - - - - - - 1025.2 1025.1 -
26/05:30am 9.3 - - - - - - - - - 1025.1 1025.0 -
26/05:00am 8.9 - - - - - - - - - 1025.2 1025.1 -
26/04:30am 9.1 - - - - - - - - - 1025.3 1025.2 -
26/04:00am 9.5 - - - - - - - - - 1025.3 1025.2 -
26/03:30am 9.5 - - - - - - - - - 1025.5 1025.4 -
26/03:00am 9.7 - - - - - - - - - 1025.6 1025.5 -
26/02:30am 10.0 - - - - - - - - - 1025.9 1025.8 -
26/02:00am 10.0 - - - - - - - - - 1026.1 1026.0 -
26/01:30am 9.9 - - - - - - - - - 1026.5 1026.4 -
26/01:00am 10.3 - - - - - - - - - 1026.7 1026.6 -
26/12:30am 10.6 - - - - - - - - - 1026.9 1026.8 -
26/12:00am 10.5 - - - - - - - - - 1026.8 1026.7 -
 
Date/Time
WST
Temp
°C
App
Temp
°C
Dew
Point
Rel
Hum
%
Delta-T
°C
Wind Press
QNH
hPa
Press
MSL
hPa
Rain
since 9 am
mm
Dir
 
Spd
km/h
Gust
km/h
Spd
kts
Gust
kts
25/11:30pm 11.2 - - - - - - - - - 1026.9 1026.8 -
25/11:00pm 10.9 - - - - - - - - - 1027.1 1027.0 -
25/10:30pm 11.5 - - - - - - - - - 1027.2 1027.1 -
25/10:00pm 12.3 - - - - - - - - - 1027.4 1027.3 -
25/09:30pm 12.0 - - - - - - - - - 1027.6 1027.5 -
25/09:00pm 12.5 - - - - - - - - - 1027.7 1027.6 -
25/08:30pm 13.4 - - - - - - - - - 1027.7 1027.6 -
25/08:00pm 13.7 - - - - - - - - - 1027.5 1027.4 -
25/07:30pm 14.2 - - - - - - - - - 1027.5 1027.4 -
25/07:00pm 14.2 - - - - - - - - - 1027.4 1027.3 -
25/06:30pm 14.2 - - - - - - - - - 1027.2 1027.1 -
25/06:00pm 14.3 - - - - - - - - - 1027.1 1027.0 -
25/05:30pm 14.5 - - - - - - - - - 1027.0 1026.9 -
25/05:00pm 14.9 - - - - - - - - - 1027.0 1026.9 -
25/04:30pm 15.1 - - - - - - - - - 1026.9 1026.8 -
25/04:00pm 15.4 - - - - - - - - - 1026.9 1026.8 -
25/03:30pm 15.5 - - - - - - - - - 1027.0 1026.9 -

Other Formats:

Comma delimited format used in spreadsheet applications
http://www.bom.gov.au/fwo/IDW60801/IDW60801.95648.axf

JavaScript Object Notation format (JSON) in row-major order
http://www.bom.gov.au/fwo/IDW60801/IDW60801.95648.json